Time;durP1;ratioP1;P1;durP2;ratioP2;P2;SDS_P1;SDS_P2;PMS_P1;PMS_P2;Temp;Humidity;BMP_temperature;BMP_pressure;BME280_temperature;BME280_humidity;BME280_pressure;Samples;Min_cycle;Max_cycle;Signal;HPM_P1;HPM_P2
2022/04/26 03:37:05;;;;;;;44.00;32.10;;;;;;;7.67;90.31;98568.95;2254508;79;21431;-79
2022/04/26 03:40:04;;;;;;;46.40;34.77;;;;;;;7.67;90.27;98564.18;2254683;79;20911;-82
2022/04/26 03:43:06;;;;;;;49.87;35.40;;;;;;;7.63;90.10;98574.94;2253513;79;20967;-82
2022/04/26 03:46:06;;;;;;;45.00;32.77;;;;;;;7.61;89.94;98577.05;2253365;79;20990;-83
2022/04/26 03:49:06;;;;;;;53.83;36.33;;;;;;;7.55;90.13;98570.02;2254394;79;20907;-82
2022/04/26 03:52:07;;;;;;;54.23;36.83;;;;;;;7.54;90.20;98574.77;2252929;78;20998;-83
2022/04/26 03:55:07;;;;;;;49.37;35.23;;;;;;;7.49;90.29;98571.20;2252578;79;20930;-82
2022/04/26 03:58:08;;;;;;;52.33;36.30;;;;;;;7.48;90.36;98568.57;2253391;79;21385;-83
2022/04/26 04:01:08;;;;;;;47.03;33.13;;;;;;;7.49;90.18;98576.39;2253253;79;20972;-82
2022/04/26 04:04:09;;;;;;;43.50;33.00;;;;;;;7.49;90.21;98585.48;2253160;79;20978;-83
2022/04/26 04:07:09;;;;;;;45.90;33.73;;;;;;;7.48;90.07;98588.05;2253268;79;20961;-83
2022/04/26 04:10:09;;;;;;;53.43;35.13;;;;;;;7.50;90.10;98592.43;2252477;79;20931;-82
2022/04/26 04:13:13;;;;;;;52.60;36.80;;;;;;;7.51;90.03;98598.50;2221638;79;21675;-81
2022/04/26 04:16:12;;;;;;;51.77;35.93;;;;;;;7.49;90.09;98604.96;2251959;79;20961;-82
2022/04/26 04:19:21;;;;;;;55.90;37.93;;;;;;;7.51;90.00;98604.57;2252479;79;20930;-82
2022/04/26 04:22:21;;;;;;;50.80;35.70;;;;;;;7.57;90.00;98609.89;2221155;79;20997;-82
2022/04/26 04:25:21;;;;;;;57.80;36.50;;;;;;;7.63;90.08;98612.61;2252796;79;20998;-82
2022/04/26 04:28:22;;;;;;;52.23;36.53;;;;;;;7.66;89.95;98623.05;2253381;79;21275;-82
2022/04/26 04:31:22;;;;;;;55.57;37.53;;;;;;;7.69;89.91;98620.94;2248297;77;20975;-82
2022/04/26 04:34:23;;;;;;;59.53;38.03;;;;;;;7.74;89.90;98628.83;2247478;79;21037;-82
2022/04/26 04:37:25;;;;;;;60.40;38.77;;;;;;;7.78;89.67;98626.73;2247427;79;21037;-82
2022/04/26 04:40:25;;;;;;;57.37;36.23;;;;;;;7.77;89.47;98631.48;2224572;79;20955;-82
2022/04/26 04:43:26;;;;;;;59.23;37.83;;;;;;;7.81;89.34;98631.61;2245839;79;21073;-82
2022/04/26 04:46:26;;;;;;;53.80;36.53;;;;;;;7.83;89.08;98630.34;2245429;79;20935;-82
2022/04/26 04:49:26;;;;;;;52.90;37.37;;;;;;;7.87;89.09;98636.05;2245412;79;20931;-79
2022/04/26 04:52:29;;;;;;;50.83;36.13;;;;;;;7.92;88.84;98635.70;2245759;79;21015;-83
2022/04/26 04:55:29;;;;;;;51.67;37.37;;;;;;;8.00;88.92;98636.73;2224735;79;20958;-81
2022/04/26 04:58:30;;;;;;;53.87;37.60;;;;;;;8.09;88.52;98647.30;2245773;79;21336;-80
2022/04/26 05:01:30;;;;;;;52.77;35.77;;;;;;;8.12;88.27;98644.75;2246007;79;20987;-79
2022/04/26 05:04:30;;;;;;;48.37;35.97;;;;;;;8.13;88.22;98649.10;2245974;79;20993;-81
2022/04/26 05:07:31;;;;;;;54.53;36.60;;;;;;;8.14;87.80;98652.16;2245828;79;21303;-79
2022/04/26 05:10:33;;;;;;;51.60;35.73;;;;;;;8.12;87.91;98655.16;2245685;79;20987;-80
2022/04/26 05:13:32;;;;;;;54.73;35.53;;;;;;;8.10;87.68;98655.55;2246444;79;21037;-80
2022/04/26 05:16:32;;;;;;;50.30;36.07;;;;;;;8.13;87.78;98656.03;2245784;79;21570;-80
2022/04/26 05:19:32;;;;;;;54.03;38.23;;;;;;;8.16;87.76;98659.98;2244405;79;21006;-80
2022/04/26 05:24:53;;;;;;;56.73;38.10;;;;;;;8.18;87.29;98661.77;2244792;79;21268;-81
2022/04/26 05:25:34;;;;;;;56.53;38.97;;;;;;;8.18;87.33;98664.36;2244454;79;21007;-79
2022/04/26 05:28:33;;;;;;;58.00;38.07;;;;;;;8.23;87.53;98667.92;2243752;79;20967;-80
2022/04/26 05:31:34;;;;;;;60.27;39.37;;;;;;;8.27;87.33;98677.95;2238581;79;20966;-80
2022/04/26 05:34:34;;;;;;;52.37;36.03;;;;;;;8.27;87.27;98674.93;2238283;79;21576;-81
2022/04/26 05:37:35;;;;;;;58.63;39.77;;;;;;;8.34;86.92;98685.48;2237988;79;20915;-81
2022/04/26 05:40:35;;;;;;;52.30;37.00;;;;;;;8.29;86.77;98685.36;2238571;79;20991;-81
2022/04/26 05:43:36;;;;;;;64.87;38.63;;;;;;;8.28;86.81;98681.00;2239446;79;21034;-81
2022/04/26 05:46:36;;;;;;;63.93;42.90;;;;;;;8.31;86.73;98687.14;2238894;79;20989;-81
2022/04/26 05:49:36;;;;;;;65.20;42.47;;;;;;;8.29;86.42;98690.14;2239234;79;21014;-81
2022/04/26 05:52:37;;;;;;;57.17;42.43;;;;;;;8.35;86.36;98690.70;2238995;79;21595;-79
2022/04/26 05:55:38;;;;;;;63.97;41.40;;;;;;;8.43;86.07;98695.63;2239031;79;20951;-81
2022/04/26 05:58:38;;;;;;;61.03;41.40;;;;;;;8.53;85.83;98700.56;2238644;79;20940;-83
2022/04/26 06:01:38;;;;;;;54.10;40.13;;;;;;;8.57;85.43;98702.36;2238264;79;20954;-79
2022/04/26 06:04:39;;;;;;;50.50;36.10;;;;;;;8.59;85.60;98704.14;2238340;79;21001;-81
2022/04/26 06:07:39;;;;;;;53.70;36.20;;;;;;;8.65;85.65;98707.70;2238092;79;20990;-80
2022/04/26 06:10:39;;;;;;;54.37;38.63;;;;;;;8.62;85.03;98718.51;2237971;79;21477;-80
2022/04/26 06:13:39;;;;;;;53.53;37.13;;;;;;;8.52;85.40;98713.12;2238960;79;20998;-81
2022/04/26 06:16:40;;;;;;;49.37;34.33;;;;;;;8.47;85.03;98716.06;2238345;79;21450;-81
2022/04/26 06:19:40;;;;;;;52.73;35.83;;;;;;;8.40;85.48;98714.20;2238053;79;20912;-81
2022/04/26 06:22:41;;;;;;;58.33;39.30;;;;;;;8.39;85.41;98713.32;2238061;79;21034;-81
2022/04/26 06:25:41;;;;;;;57.60;37.27;;;;;;;8.34;85.51;98711.06;2238303;79;21001;-80
2022/04/26 06:28:42;;;;;;;45.93;32.57;;;;;;;8.31;85.36;98723.55;2237680;79;21001;-80
2022/04/26 06:31:42;;;;;;;47.63;33.50;;;;;;;8.32;85.10;98724.42;2243293;77;21023;-79
2022/04/26 06:34:42;;;;;;;42.57;28.40;;;;;;;8.37;85.12;98723.25;2244477;79;21310;-80
2022/04/26 06:37:43;;;;;;;36.60;27.30;;;;;;;8.44;84.26;98721.20;2244808;79;21073;-80
2022/04/26 06:40:45;;;;;;;39.67;28.33;;;;;;;8.44;84.01;98719.91;2244921;79;21278;-81
2022/04/26 06:43:43;;;;;;;44.60;29.67;;;;;;;8.48;84.35;98719.99;2244526;79;21057;-80
2022/04/26 06:46:44;;;;;;;44.97;29.00;;;;;;;8.62;84.35;98726.73;2245715;79;21003;-81
2022/04/26 06:49:48;;;;;;;48.43;29.30;;;;;;;8.72;83.51;98731.71;2246266;79;21361;-82
2022/04/26 06:52:47;;;;;;;45.47;25.83;;;;;;;8.72;83.25;98731.29;2222994;79;20973;-82
2022/04/26 06:55:47;;;;;;;33.30;24.77;;;;;;;8.81;83.28;98727.54;2246205;78;21416;-79
2022/04/26 06:58:48;;;;;;;36.70;25.20;;;;;;;8.90;83.12;98726.39;2246371;79;20954;-82
2022/04/26 07:01:52;;;;;;;34.87;25.07;;;;;;;8.97;82.77;98730.39;2246305;79;21377;-82
2022/04/26 07:04:50;;;;;;;40.00;24.47;;;;;;;9.07;82.17;98730.99;2223261;79;20951;-79
2022/04/26 07:07:52;;;;;;;39.83;24.27;;;;;;;9.16;81.96;98733.74;2245487;79;21381;-82
2022/04/26 07:10:51;;;;;;;35.50;25.73;;;;;;;9.31;81.75;98742.22;2245518;79;20904;-79
2022/04/26 07:13:52;;;;;;;38.50;25.70;;;;;;;9.39;81.14;98744.51;2246169;79;21129;-80
2022/04/26 07:16:52;;;;;;;28.17;20.60;;;;;;;9.51;80.88;98742.08;2245866;79;21480;-81
2022/04/26 07:19:52;;;;;;;33.90;22.03;;;;;;;9.57;79.86;98742.20;2246008;79;20998;-81
2022/04/26 07:22:53;;;;;;;27.47;20.60;;;;;;;9.54;79.37;98745.64;2246420;79;20923;-80
2022/04/26 07:25:55;;;;;;;28.33;18.90;;;;;;;9.53;79.16;98750.37;2246280;79;21476;-80
2022/04/26 07:28:54;;;;;;;26.83;18.83;;;;;;;9.52;79.09;98750.34;2245211;79;20943;-80
2022/04/26 07:31:56;;;;;;;23.57;18.23;;;;;;;9.58;78.68;98752.65;2255119;77;20997;-81
2022/04/26 07:35:00;;;;;;;17.17;14.95;;;;;;;9.57;78.02;98763.05;2202497;79;20915;-82
2022/04/26 07:38:00;;;;;;;17.40;14.13;;;;;;;9.50;77.08;98761.17;2226692;79;21401;-82
2022/04/26 07:41:01;;;;;;;21.13;16.07;;;;;;;9.46;76.94;98768.50;2258015;79;20926;-81
2022/04/26 07:44:02;;;;;;;21.43;18.27;;;;;;;9.48;76.35;98767.66;2258742;79;21287;-82
2022/04/26 07:47:02;;;;;;;21.43;17.30;;;;;;;9.52;77.22;98772.49;2258993;79;20935;-82
2022/04/26 07:50:02;;;;;;;21.97;17.33;;;;;;;9.60;77.69;98772.64;2258467;79;20954;-81
2022/04/26 07:53:02;;;;;;;26.43;17.30;;;;;;;9.68;76.69;98781.02;2258574;79;21061;-83
2022/04/26 07:56:03;;;;;;;25.40;17.93;;;;;;;9.72;77.20;98775.42;2258728;79;21045;-80
2022/04/26 07:59:04;;;;;;;25.30;16.97;;;;;;;9.93;77.54;98777.45;2258410;79;20958;-82
2022/04/26 08:02:04;;;;;;;19.67;17.00;;;;;;;10.01;76.76;98783.20;2258447;79;20958;-80
2022/04/26 08:05:04;;;;;;;23.70;16.87;;;;;;;10.09;75.87;98785.48;2258740;79;21409;-80
2022/04/26 08:08:04;;;;;;;20.47;15.83;;;;;;;10.10;75.83;98787.66;2258810;79;20997;-79
2022/04/26 08:11:05;;;;;;;20.13;15.87;;;;;;;10.15;75.36;98789.91;2259065;79;20973;-81
2022/04/26 08:14:05;;;;;;;23.83;16.73;;;;;;;10.24;75.11;98795.70;2258515;79;21029;-80
2022/04/26 08:17:06;;;;;;;27.80;16.07;;;;;;;10.24;74.49;98804.83;2258233;79;20946;-80
2022/04/26 08:20:06;;;;;;;16.83;15.03;;;;;;;10.23;74.70;98801.77;2259470;79;21384;-81
2022/04/26 08:23:06;;;;;;;18.07;15.53;;;;;;;10.22;74.38;98808.72;2258839;79;21349;-79
2022/04/26 08:29:26;;;;;;;22.20;17.17;;;;;;;10.16;73.47;98809.48;2258610;78;21318;-79
2022/04/26 08:32:28;;;;;;;23.20;17.00;;;;;;;10.10;73.71;98808.10;2246852;79;20995;-79
2022/04/26 08:35:27;;;;;;;24.50;16.80;;;;;;;10.06;74.14;98810.22;2244165;79;20946;-81
2022/04/26 08:38:28;;;;;;;24.17;19.00;;;;;;;10.06;73.00;98813.26;2244260;79;21593;-81
2022/04/26 08:41:29;;;;;;;22.40;18.17;;;;;;;9.94;73.99;98811.36;2243963;79;21058;-78
2022/04/26 08:44:28;;;;;;;19.50;15.60;;;;;;;9.99;74.78;98817.52;2241374;79;21014;-81
2022/04/26 08:51:00;;;;;;;22.53;18.00;;;;;;;10.08;74.57;98813.73;2244431;78;20967;-80
2022/04/26 08:54:00;;;;;;;20.07;17.27;;;;;;;10.22;74.25;98812.63;2245425;79;21298;-79
2022/04/26 08:57:01;;;;;;;18.77;16.77;;;;;;;10.35;73.57;98817.58;2244903;79;20957;-79
2022/04/26 09:00:05;;;;;;;24.37;15.43;;;;;;;10.49;72.62;98816.91;2244616;79;20963;-79
2022/04/26 09:03:02;;;;;;;18.43;15.27;;;;;;;10.80;72.66;98816.82;2244661;79;21378;-80
2022/04/26 09:06:15;;;;;;;17.93;15.17;;;;;;;10.80;72.66;98816.82;2245438;79;21013;-79
2022/04/26 09:09:11;;;;;;;15.25;13.65;;;;;;;11.18;71.80;98821.54;2245151;79;21362;-79
2022/04/26 09:12:12;;;;;;;21.17;14.45;;;;;;;11.45;70.51;98819.19;2245322;79;20961;-79
2022/04/26 09:15:13;;;;;;;18.40;15.48;;;;;;;11.68;70.71;98824.59;2245516;79;20991;-79
2022/04/26 09:18:16;;;;;;;15.72;12.78;;;;;;;11.82;69.99;98827.33;2245464;79;20946;-80
2022/04/26 09:21:16;;;;;;;16.32;13.18;;;;;;;11.93;68.60;98826.09;2245727;79;21285;-80
2022/04/26 09:24:16;;;;;;;15.32;13.53;;;;;;;11.95;68.02;98830.47;2245665;79;21410;-80
2022/04/26 09:27:17;;;;;;;16.12;13.13;;;;;;;11.84;67.59;98828.22;2244871;79;20970;-80
2022/04/26 09:30:17;;;;;;;11.60;10.50;;;;;;;11.87;68.40;98827.36;2246110;77;20927;-80
2022/04/26 09:33:17;;;;;;;15.43;13.83;;;;;;;12.04;67.29;98825.72;2258680;79;21439;-80
2022/04/26 09:36:18;;;;;;;13.75;11.57;;;;;;;12.07;67.62;98830.53;2259321;79;20938;-79
2022/04/26 09:39:18;;;;;;;17.55;13.88;;;;;;;12.09;66.51;98831.85;2259296;79;20915;-79
2022/04/26 09:42:19;;;;;;;19.25;13.10;;;;;;;12.00;66.38;98830.06;2259864;79;21006;-80
2022/04/26 09:45:19;;;;;;;11.68;9.90;;;;;;;12.00;66.26;98830.48;2258573;79;21013;-78
2022/04/26 09:48:19;;;;;;;11.90;10.70;;;;;;;12.01;63.77;98832.24;2258060;79;21166;-80
2022/04/26 09:51:20;;;;;;;11.35;10.25;;;;;;;11.91;64.88;98832.62;2257901;79;21073;-79
2022/04/26 09:54:20;;;;;;;13.80;11.48;;;;;;;11.90;66.16;98832.61;2258075;79;20962;-79
2022/04/26 09:57:21;;;;;;;13.00;11.70;;;;;;;11.99;64.59;98833.54;2259020;79;20914;-80
2022/04/26 10:00:22;;;;;;;11.85;10.00;;;;;;;11.87;66.21;98840.44;2259451;79;21004;-79
2022/04/26 10:03:21;;;;;;;11.73;9.83;;;;;;;11.79;66.38;98841.27;2259271;79;20911;-81
2022/04/26 10:06:22;;;;;;;12.10;10.88;;;;;;;11.61;66.03;98838.91;2258482;79;21328;-82
2022/04/26 10:09:22;;;;;;;12.50;10.18;;;;;;;11.53;66.26;98837.55;2258624;79;20966;-82
2022/04/26 10:12:23;;;;;;;11.48;9.98;;;;;;;11.63;67.25;98834.57;2258451;79;20899;-81
2022/04/26 10:15:23;;;;;;;12.45;9.90;;;;;;;11.96;67.49;98840.06;2258613;79;21052;-81
2022/04/26 10:18:24;;;;;;;9.90;8.90;;;;;;;12.22;65.11;98838.93;2259227;79;20929;-81
2022/04/26 10:21:24;;;;;;;10.93;8.85;;;;;;;12.31;64.41;98838.98;2259122;79;20918;-81
2022/04/26 10:24:25;;;;;;;12.30;9.70;;;;;;;12.52;64.17;98842.13;2259371;79;20986;-82
2022/04/26 10:27:26;;;;;;;9.35;8.30;;;;;;;12.76;62.99;98845.27;2258137;79;20891;-81
2022/04/26 10:30:29;;;;;;;12.15;9.15;;;;;;;13.03;63.30;98847.11;2257853;77;21483;-81
2022/04/26 10:33:29;;;;;;;13.30;10.25;;;;;;;13.10;62.27;98844.06;2245559;79;20974;-82
2022/04/26 10:36:30;;;;;;;8.75;7.83;;;;;;;13.04;61.80;98842.30;2244649;79;20986;-82
2022/04/26 10:39:30;;;;;;;11.90;8.93;;;;;;;13.00;61.90;98843.14;2244288;79;21674;-80
2022/04/26 10:42:31;;;;;;;8.05;7.35;;;;;;;12.84;62.32;98847.91;2244300;79;20955;-80
2022/04/26 10:45:31;;;;;;;16.67;8.70;;;;;;;12.75;62.25;98847.01;2243749;79;21050;-83
2022/04/26 10:48:31;;;;;;;4.97;4.37;;;;;;;12.78;62.00;98850.50;2244801;79;21093;-82
2022/04/26 10:51:32;;;;;;;4.12;3.72;;;;;;;12.59;59.38;98855.68;2245967;79;20958;-82
2022/04/26 10:54:32;;;;;;;7.00;4.15;;;;;;;12.51;60.22;98849.97;2245437;79;20919;-83
2022/04/26 10:57:33;;;;;;;6.50;5.40;;;;;;;12.58;60.21;98849.13;2246100;79;21002;-82
2022/04/26 11:00:34;;;;;;;5.55;5.05;;;;;;;12.48;60.35;98853.45;2246044;79;20942;-84
2022/04/26 11:03:34;;;;;;;7.05;5.33;;;;;;;12.51;60.55;98852.59;2245486;79;20924;-81
2022/04/26 11:06:41;;;;;;;11.00;7.15;;;;;;;12.63;60.23;98853.52;2244951;79;21069;-80
2022/04/26 11:09:40;;;;;;;13.70;8.83;;;;;;;12.61;59.67;98853.94;2245215;79;20950;-80
2022/04/26 11:12:40;;;;;;;11.30;8.38;;;;;;;12.55;61.59;98856.53;2245856;79;21429;-82
2022/04/26 11:15:41;;;;;;;34.08;10.85;;;;;;;12.55;61.54;98859.16;2245061;79;21006;-82
2022/04/26 11:18:43;;;;;;;10.80;9.28;;;;;;;12.36;61.55;98852.96;2245078;79;21499;-82
2022/04/26 11:21:42;;;;;;;10.10;9.05;;;;;;;12.09;61.62;98860.63;2245702;79;20967;-83
2022/04/26 11:28:10;;;;;;;16.55;14.33;;;;;;;11.24;62.11;98866.02;2245819;78;20948;-79
2022/04/26 11:31:04;;;;;;;14.63;12.35;;;;;;;10.91;63.30;98866.98;2245443;78;21002;-82
2022/04/26 11:34:04;;;;;;;19.52;14.33;;;;;;;10.73;63.14;98874.17;2259090;79;20973;-80
2022/04/26 11:37:05;;;;;;;18.50;12.85;;;;;;;10.54;63.97;98874.38;2258633;79;20998;-80
2022/04/26 11:40:05;;;;;;;11.38;10.18;;;;;;;10.51;64.59;98874.34;2258135;79;21022;-81
2022/04/26 11:43:09;;;;;;;10.70;8.80;;;;;;;10.55;64.26;98877.45;2257946;79;20907;-84
2022/04/26 11:46:09;;;;;;;9.67;8.07;;;;;;;10.55;64.13;98880.05;2258405;79;20962;-80
2022/04/26 11:49:10;;;;;;;10.80;8.88;;;;;;;10.72;63.68;98877.22;2258242;79;20923;-80
2022/04/26 11:52:10;;;;;;;11.40;8.17;;;;;;;10.87;63.86;98876.94;2258504;79;21118;-81
2022/04/26 11:55:10;;;;;;;13.78;9.38;;;;;;;11.02;62.68;98882.33;2258845;79;20962;-82
2022/04/26 11:58:12;;;;;;;14.75;8.50;;;;;;;11.16;62.88;98874.20;2258784;79;21382;-82
2022/04/26 12:01:11;;;;;;;11.12;7.78;;;;;;;11.29;62.09;98876.11;2259679;79;20966;-80
2022/04/26 12:04:12;;;;;;;9.93;8.55;;;;;;;11.45;61.82;98879.30;2259234;79;20950;-81
2022/04/26 12:07:12;;;;;;;10.68;7.72;;;;;;;11.66;61.88;98877.73;2258600;79;21369;-80
2022/04/26 12:10:12;;;;;;;8.38;6.90;;;;;;;11.81;61.33;98873.96;2258460;79;21065;-81
2022/04/26 12:13:13;;;;;;;6.92;6.28;;;;;;;11.98;61.05;98870.16;2258818;79;20907;-81
2022/04/26 12:16:13;;;;;;;6.65;5.83;;;;;;;12.22;59.43;98876.88;2257902;79;21369;-81
2022/04/26 12:19:14;;;;;;;6.15;5.53;;;;;;;12.36;59.64;98875.64;2258133;79;20935;-81
2022/04/26 12:22:14;;;;;;;5.37;4.90;;;;;;;12.61;58.84;98876.20;2258123;79;20958;-81
2022/04/26 12:25:15;;;;;;;4.90;4.47;;;;;;;12.80;58.80;98877.58;2258171;79;20982;-82
2022/04/26 12:28:15;;;;;;;5.22;4.67;;;;;;;12.89;56.87;98878.48;2257816;79;20978;-79
2022/04/26 12:31:15;;;;;;;5.65;5.15;;;;;;;12.78;56.46;98873.64;2257821;77;20967;-81
2022/04/26 12:34:16;;;;;;;6.20;5.60;;;;;;;12.80;56.97;98876.27;2258290;79;20919;-80
2022/04/26 12:37:16;;;;;;;6.12;5.53;;;;;;;12.96;56.50;98880.69;2259099;79;20947;-79
2022/04/26 12:40:19;;;;;;;9.90;6.30;;;;;;;13.09;56.62;98878.56;2259010;79;21399;-78
2022/04/26 12:43:18;;;;;;;7.87;6.22;;;;;;;13.20;56.17;98876.88;2257961;79;20938;-80
2022/04/26 12:46:17;;;;;;;7.10;6.42;;;;;;;13.09;56.67;98874.64;2257835;79;21276;-80
2022/04/26 12:52:37;;;;;;;8.05;7.20;;;;;;;13.08;56.62;98875.51;2256231;78;20958;-79
2022/04/26 12:55:37;;;;;;;9.50;7.55;;;;;;;12.88;57.42;98868.00;2256381;79;20977;-81
2022/04/26 12:58:37;;;;;;;10.18;8.35;;;;;;;12.68;57.99;98870.55;2258763;79;21357;-79
2022/04/26 13:01:38;;;;;;;11.68;7.20;;;;;;;12.47;58.56;98866.53;2258337;79;21007;-78
2022/04/26 13:04:38;;;;;;;7.08;6.37;;;;;;;12.30;58.99;98871.25;2257651;78;20998;-80
2022/04/26 13:07:39;;;;;;;11.05;7.65;;;;;;;12.16;59.51;98867.69;2259052;79;21021;-80
2022/04/26 13:10:42;;;;;;;10.53;6.92;;;;;;;12.08;60.65;98869.34;2259079;79;20950;-80
2022/04/26 13:13:42;;;;;;;7.45;6.67;;;;;;;12.04;60.75;98868.45;2258397;79;20934;-82
2022/04/26 13:16:43;;;;;;;7.60;6.90;;;;;;;11.91;60.34;98872.28;2258061;79;21005;-81
2022/04/26 13:19:43;;;;;;;12.58;8.63;;;;;;;11.71;61.45;98874.72;2258151;79;21333;-81
2022/04/26 13:22:44;;;;;;;8.98;8.08;;;;;;;11.61;61.80;98876.82;2258135;79;20926;-81
2022/04/26 13:25:44;;;;;;;8.58;7.67;;;;;;;11.42;62.56;98875.79;2257907;79;21030;-81
2022/04/26 13:28:44;;;;;;;11.83;7.60;;;;;;;11.28;63.38;98873.48;2257996;79;21375;-82
2022/04/26 13:31:45;;;;;;;9.40;8.08;;;;;;;11.20;63.32;98874.68;2257315;79;21028;-81
2022/04/26 13:34:45;;;;;;;8.50;7.50;;;;;;;11.22;63.97;98872.95;2251618;79;20966;-82
2022/04/26 13:37:50;;;;;;;8.88;8.08;;;;;;;11.33;63.14;98880.50;2251964;79;20958;-81
2022/04/26 13:40:52;;;;;;;11.30;8.43;;;;;;;11.30;63.02;98879.59;2252779;79;20931;-80
2022/04/26 13:43:49;;;;;;;8.63;7.05;;;;;;;11.29;63.02;98878.72;2253074;79;21412;-80
2022/04/26 13:46:49;;;;;;;9.23;8.08;;;;;;;11.33;63.19;98880.50;2252338;79;21002;-81
2022/04/26 13:49:51;;;;;;;11.22;8.33;;;;;;;11.35;62.71;98876.59;2252122;79;20973;-81
2022/04/26 13:52:50;;;;;;;11.00;9.28;;;;;;;11.38;63.34;98884.03;2252854;79;21343;-81
2022/04/26 13:55:51;;;;;;;10.65;9.20;;;;;;;11.37;62.45;98891.43;2252295;79;20955;-81
2022/04/26 13:58:51;;;;;;;56.03;10.17;;;;;;;11.28;62.97;98885.23;2252749;79;20950;-81
2022/04/26 14:01:52;;;;;;;12.40;10.03;;;;;;;11.33;62.94;98887.47;2252483;79;21415;-81
2022/04/26 14:04:52;;;;;;;12.57;8.90;;;;;;;11.34;62.02;98890.09;2252473;79;21123;-80
2022/04/26 14:07:52;;;;;;;11.33;8.80;;;;;;;11.34;61.45;98891.83;2252606;79;20992;-81
2022/04/26 14:10:53;;;;;;;11.83;8.00;;;;;;;11.21;61.46;98894.72;2252709;79;21182;-80
2022/04/26 14:23:49;;;;;;;17.00;9.07;;;;;;;10.91;62.00;98900.92;2251907;79;21373;-80
2022/04/26 14:26:51;;;;;;;13.57;10.27;;;;;;;11.30;67.42;98894.84;2252960;79;20990;-82
2022/04/26 14:29:50;;;;;;;12.40;9.13;;;;;;;13.00;61.83;98894.23;2253011;79;20934;-82
2022/04/26 14:32:51;;;;;;;16.52;10.08;;;;;;;13.12;61.72;98898.66;2251787;77;21412;-79
2022/04/26 14:35:51;;;;;;;21.27;9.68;;;;;;;13.73;58.60;98897.03;2252251;79;20927;-82
2022/04/26 14:38:52;;;;;;;9.40;8.20;;;;;;;13.15;57.52;98900.86;2252751;79;20907;-80
2022/04/26 14:41:53;;;;;;;9.53;7.47;;;;;;;12.71;58.14;98905.92;2253680;79;21259;-80
2022/04/26 14:44:52;;;;;;;11.28;8.35;;;;;;;12.29;58.48;98899.60;2254130;79;20947;-80
2022/04/26 14:47:53;;;;;;;8.65;7.75;;;;;;;12.02;58.93;98901.58;2253811;79;20970;-80
2022/04/26 14:50:53;;;;;;;10.50;8.55;;;;;;;11.82;58.22;98907.53;2253962;79;21066;-82
2022/04/26 14:53:53;;;;;;;10.85;8.83;;;;;;;11.60;59.14;98904.70;2254792;79;20951;-80
2022/04/26 14:56:54;;;;;;;11.83;7.50;;;;;;;11.49;59.29;98910.27;2254108;79;21341;-82
2022/04/26 14:59:54;;;;;;;11.03;7.55;;;;;;;11.44;59.13;98907.61;2254649;79;20903;-82
2022/04/26 15:02:55;;;;;;;8.25;7.42;;;;;;;11.40;59.61;98904.52;2254958;79;21023;-82
2022/04/26 15:05:55;;;;;;;12.35;7.92;;;;;;;11.37;59.35;98905.80;2254067;79;21369;-80
2022/04/26 15:18:53;;;;;;;17.37;11.33;;;;;;;11.17;61.31;98908.61;2252229;79;20967;-81
2022/04/26 15:21:53;;;;;;;12.53;10.47;;;;;;;11.10;61.63;98908.98;2251661;79;21408;-81
2022/04/26 15:24:54;;;;;;;12.83;10.47;;;;;;;11.05;61.34;98909.79;2252048;79;21095;-81
2022/04/26 15:27:54;;;;;;;14.57;11.57;;;;;;;11.00;61.77;98912.78;2253014;79;21297;-80
2022/04/26 15:30:54;;;;;;;19.70;11.73;;;;;;;10.97;62.03;98905.79;2252919;79;21002;-79
2022/04/26 15:33:55;;;;;;;14.15;11.05;;;;;;;11.01;63.77;98909.31;2248170;79;21023;-79
2022/04/26 15:36:55;;;;;;;19.27;12.70;;;;;;;11.20;62.00;98913.88;2245816;79;20993;-80
2022/04/26 15:39:56;;;;;;;13.53;11.73;;;;;;;11.01;61.66;98919.33;2245982;79;20938;-80
2022/04/26 15:42:56;;;;;;;14.87;11.43;;;;;;;10.83;62.69;98918.69;2245536;79;20943;-80
2022/04/26 15:45:56;;;;;;;17.07;13.50;;;;;;;10.75;62.74;98921.63;2245351;79;21386;-80
2022/04/26 15:48:58;;;;;;;16.83;12.43;;;;;;;10.65;63.34;98917.59;2245105;79;20987;-81
2022/04/26 15:51:57;;;;;;;20.73;12.77;;;;;;;10.59;63.82;98915.78;2246295;79;21050;-80
2022/04/26 15:54:58;;;;;;;16.23;12.30;;;;;;;10.57;63.83;98913.58;2246000;79;20936;-80
2022/04/26 15:57:58;;;;;;;15.73;12.23;;;;;;;10.51;63.99;98921.33;2246777;79;21233;-81
2022/04/26 16:00:59;;;;;;;17.33;12.93;;;;;;;10.50;64.58;98922.19;2246425;79;21306;-81
2022/04/26 16:04:00;;;;;;;16.87;12.90;;;;;;;10.51;64.73;98922.20;2245972;79;20979;-80
2022/04/26 16:06:59;;;;;;;13.80;11.80;;;;;;;10.46;64.89;98922.57;2246732;79;20967;-82
2022/04/26 16:23:15;;;;;;;16.70;13.97;;;;;;;10.39;65.65;98923.73;2247048;78;21402;-80
2022/04/26 16:26:19;;;;;;;33.67;21.87;;;;;;;10.39;65.52;98928.53;2246004;79;20926;-82
2022/04/26 16:29:16;;;;;;;44.10;29.03;;;;;;;10.37;65.53;98922.41;2246608;79;20923;-80
2022/04/26 16:32:16;;;;;;;31.20;22.20;;;;;;;10.35;65.62;98926.73;2247418;79;21354;-80
2022/04/26 16:35:17;;;;;;;30.20;20.77;;;;;;;10.29;65.72;98927.95;2247287;79;20989;-81
2022/04/26 16:38:17;;;;;;;26.80;18.97;;;;;;;10.26;65.85;98919.20;2245963;79;21325;-80
2022/04/26 16:41:18;;;;;;;22.90;17.57;;;;;;;10.27;66.08;98921.83;2247149;79;20974;-80
2022/04/26 16:44:20;;;;;;;25.73;18.77;;;;;;;10.25;66.32;98926.58;2247144;79;20927;-81
2022/04/26 16:47:18;;;;;;;27.67;18.87;;;;;;;10.23;66.20;98924.38;2247784;79;21018;-80
2022/04/26 16:50:18;;;;;;;32.43;19.17;;;;;;;10.20;66.41;98922.60;2247525;79;20919;-81
2022/04/26 16:53:19;;;;;;;304.73;42.57;;;;;;;10.19;66.59;98925.60;2247295;79;20931;-81
2022/04/26 16:56:19;;;;;;;48.73;30.73;;;;;;;10.19;66.93;98930.82;2248270;79;20998;-82
2022/04/26 16:59:21;;;;;;;40.97;27.53;;;;;;;10.19;67.20;98929.52;2248018;79;20919;-82
2022/04/26 17:02:26;;;;;;;57.37;34.23;;;;;;;10.18;67.03;98927.77;2247796;79;20910;-82
2022/04/26 17:05:27;;;;;;;48.63;28.97;;;;;;;10.17;67.06;98927.73;2247882;79;21045;-82
2022/04/26 17:08:27;;;;;;;38.60;24.23;;;;;;;10.10;67.31;98928.08;2247172;79;20938;-82
2022/04/26 17:11:43;;;;;;;35.20;22.13;;;;;;;10.07;67.59;98936.28;2247670;79;20962;-81
2022/04/26 17:14:43;;;;;;;21.73;17.27;;;;;;;10.01;67.83;98938.38;2247781;79;20915;-82
2022/04/26 17:17:47;;;;;;;21.80;16.47;;;;;;;9.97;68.06;98938.30;2246892;79;21047;-81
2022/04/26 17:20:47;;;;;;;20.63;16.07;;;;;;;9.97;68.38;98937.00;2246507;79;20944;-81
2022/04/26 17:23:47;;;;;;;24.17;16.10;;;;;;;9.96;68.55;98934.81;2246215;79;21259;-82
2022/04/26 17:26:48;;;;;;;31.63;19.30;;;;;;;9.95;68.72;98939.58;2245796;79;21477;-82
2022/04/26 17:29:48;;;;;;;54.10;28.53;;;;;;;9.91;68.77;98945.59;2246875;79;21029;-81
2022/04/26 17:32:48;;;;;;;50.40;32.00;;;;;;;9.88;69.44;98945.55;2247687;78;21077;-82
2022/04/26 17:35:49;;;;;;;56.37;33.40;;;;;;;9.89;69.83;98945.58;2254205;79;21374;-81
2022/04/26 17:38:49;;;;;;;60.43;36.63;;;;;;;9.85;70.22;98945.08;2253641;79;20970;-81
2022/04/26 17:41:50;;;;;;;58.90;34.87;;;;;;;9.82;70.70;98951.97;2252737;79;20927;-82
2022/04/26 17:44:50;;;;;;;52.57;32.50;;;;;;;9.73;71.10;98949.20;2253161;79;21385;-81
2022/04/26 17:47:54;;;;;;;45.17;28.80;;;;;;;9.65;71.54;98956.90;2253525;79;21054;-82
2022/04/26 17:50:54;;;;;;;44.57;27.27;;;;;;;9.61;71.88;98958.13;2254762;79;20950;-82
2022/04/26 17:57:13;;;;;;;50.93;32.83;;;;;;;9.53;72.41;98964.05;2255067;79;20974;-81
2022/04/26 18:00:14;;;;;;;38.57;22.33;;;;;;;9.50;72.73;98961.81;2252263;79;20989;-80
2022/04/26 18:03:14;;;;;;;33.70;22.37;;;;;;;9.46;72.95;98963.48;2254507;79;21937;-81
2022/04/26 18:06:16;;;;;;;34.03;20.57;;;;;;;9.42;73.13;98963.40;2253974;79;20935;-80
2022/04/26 18:09:15;;;;;;;36.93;22.07;;;;;;;9.37;73.42;98973.73;2254957;79;21226;-80
2022/04/26 18:12:15;;;;;;;32.20;21.47;;;;;;;9.34;73.63;98976.28;2254012;79;21365;-82
2022/04/26 18:15:16;;;;;;;40.67;23.03;;;;;;;9.30;73.80;98990.09;2253046;79;20934;-81
2022/04/26 18:18:16;;;;;;;36.10;22.57;;;;;;;9.25;73.87;98990.02;2253594;79;21085;-82
2022/04/26 18:21:17;;;;;;;35.83;21.87;;;;;;;9.34;74.67;98993.22;2253035;79;20955;-82
2022/04/26 18:24:19;;;;;;;71.57;40.90;;;;;;;9.34;74.06;98997.13;2253421;78;20955;-81